Time;durP1;ratioP1;P1;durP2;ratioP2;P2;SDS_P1;SDS_P2;PMS_P1;PMS_P2;Temp;Humidity;BMP_temperature;BMP_pressure;BME280_temperature;BME280_humidity;BME280_pressure;Samples;Min_cycle;Max_cycle;Signal;HPM_P1;HPM_P2
2021/09/17 00:00:13;;;;;;;;;;;10.80;99.90;;;;;;5073821;28;19913;-72
2021/09/17 00:02:39;;;;;;;;;;;10.70;99.90;;;;;;5073739;28;20365;-71
2021/09/17 00:05:05;;;;;;;;;;;10.70;99.90;;;;;;5073774;28;19908;-71
2021/09/17 00:07:30;;;;;;;;;;;10.70;99.90;;;;;;5073228;28;20403;-71
2021/09/17 00:09:56;;;;;;;;;;;10.80;99.90;;;;;;5074302;28;19909;-71
2021/09/17 00:12:22;;;;;;;;;;;10.80;99.90;;;;;;5085439;28;20027;-71
2021/09/17 00:14:47;;;;;;;;;;;10.90;99.90;;;;;;5077538;28;19916;-71
2021/09/17 00:17:13;;;;;;;;;;;11.00;99.90;;;;;;5073166;28;19912;-71
2021/09/17 00:19:38;;;;;;;;;;;11.10;99.90;;;;;;5073435;28;19916;-71
2021/09/17 00:22:04;;;;;;;;;;;11.10;99.90;;;;;;5073279;28;19909;-71
2021/09/17 00:24:29;;;;;;;;;;;11.10;99.90;;;;;;5073471;28;19913;-71
2021/09/17 00:26:55;;;;;;;;;;;11.20;99.90;;;;;;5072960;28;20410;-71
2021/09/17 00:29:21;;;;;;;;;;;11.20;99.90;;;;;;5073560;28;19909;-71
2021/09/17 00:31:46;;;;;;;;;;;11.20;99.90;;;;;;5073162;28;19908;-72
2021/09/17 00:34:12;;;;;;;;;;;11.20;99.90;;;;;;5073169;28;19913;-71
2021/09/17 00:36:37;;;;;;;;;;;11.30;99.90;;;;;;5072696;28;20379;-71
2021/09/17 00:39:03;;;;;;;;;;;11.40;99.90;;;;;;5073012;28;19912;-71
2021/09/17 00:41:29;;;;;;;;;;;11.30;99.90;;;;;;5082515;28;19935;-71
2021/09/17 00:43:55;;;;;;;;;;;11.40;99.90;;;;;;5080737;28;19966;-71
2021/09/17 00:46:20;;;;;;;;;;;11.40;99.90;;;;;;5072440;28;19920;-71
2021/09/17 00:48:46;;;;;;;;;;;11.50;99.90;;;;;;5072954;28;20031;-71
2021/09/17 00:51:11;;;;;;;;;;;11.50;99.90;;;;;;5072742;28;19908;-71
2021/09/17 00:53:38;;;;;;;;;;;11.40;99.90;;;;;;5072791;28;19924;-72
2021/09/17 00:56:04;;;;;;;;;;;11.40;99.90;;;;;;5072562;28;19916;-71
2021/09/17 00:58:30;;;;;;;;;;;11.50;99.90;;;;;;5072504;28;20418;-71
2021/09/17 01:00:55;;;;;;;;;;;11.60;99.90;;;;;;5072651;28;19916;-71
2021/09/17 01:03:21;;;;;;;;;;;11.60;99.90;;;;;;5072285;28;20038;-72
2021/09/17 01:05:46;;;;;;;;;;;11.50;99.90;;;;;;5072415;28;19909;-71
2021/09/17 01:08:12;;;;;;;;;;;11.50;99.90;;;;;;5072173;28;19916;-71
2021/09/17 01:10:37;;;;;;;;;;;11.50;99.90;;;;;;5078782;28;19912;-71
2021/09/17 01:13:03;;;;;;;;;;;11.50;99.90;;;;;;5084555;28;20374;-72
2021/09/17 01:15:29;;;;;;;;;;;11.60;99.90;;;;;;5072439;28;19924;-71
2021/09/17 01:17:54;;;;;;;;;;;11.60;99.90;;;;;;5071883;28;19909;-71
2021/09/17 01:20:20;;;;;;;;;;;11.60;99.90;;;;;;5072024;28;19912;-71
2021/09/17 01:22:46;;;;;;;;;;;11.60;99.90;;;;;;5072149;28;19908;-71
2021/09/17 01:25:14;;;;;;;;;;;11.60;99.90;;;;;;5072052;28;19908;-71
2021/09/17 01:27:40;;;;;;;;;;;11.60;99.90;;;;;;5071616;28;19974;-71
2021/09/17 01:30:06;;;;;;;;;;;11.60;99.90;;;;;;5072070;28;19908;-71
2021/09/17 01:32:32;;;;;;;;;;;11.60;99.90;;;;;;5071873;28;20004;-71
2021/09/17 01:34:57;;;;;;;;;;;11.60;99.90;;;;;;5071911;28;19995;-72
2021/09/17 01:37:23;;;;;;;;;;;11.60;99.90;;;;;;5076947;28;19908;-71
2021/09/17 01:39:48;;;;;;;;;;;11.70;99.90;;;;;;5080870;28;19919;-71
2021/09/17 01:42:14;;;;;;;;;;;11.70;99.90;;;;;;5071882;28;19913;-71
2021/09/17 01:44:40;;;;;;;;;;;11.70;99.90;;;;;;5072324;28;20364;-71
2021/09/17 01:47:06;;;;;;;;;;;11.80;99.90;;;;;;5071249;28;20359;-71
2021/09/17 01:49:32;;;;;;;;;;;11.70;99.90;;;;;;5071668;28;19915;-71
2021/09/17 01:51:57;;;;;;;;;;;11.80;99.90;;;;;;5071801;28;19912;-71
2021/09/17 01:54:23;;;;;;;;;;;11.70;99.90;;;;;;5072283;28;19916;-71
2021/09/17 01:56:48;;;;;;;;;;;11.80;99.90;;;;;;5071409;28;19915;-71
2021/09/17 01:59:14;;;;;;;;;;;11.70;99.90;;;;;;5071699;28;20288;-71
2021/09/17 02:01:39;;;;;;;;;;;11.80;99.90;;;;;;5071565;28;19954;-71
2021/09/17 02:04:05;;;;;;;;;;;11.70;99.90;;;;;;5071530;28;19915;-71
2021/09/17 02:06:30;;;;;;;;;;;11.80;99.90;;;;;;5071706;28;19940;-71
2021/09/17 02:08:56;;;;;;;;;;;11.80;99.90;;;;;;5077455;28;19928;-71
2021/09/17 02:11:22;;;;;;;;;;;11.80;99.90;;;;;;5081750;28;19916;-71
2021/09/17 02:13:48;;;;;;;;;;;11.80;99.90;;;;;;5080129;28;19916;-71
2021/09/17 02:16:13;;;;;;;;;;;11.90;99.90;;;;;;5074507;28;19978;-71
2021/09/17 02:18:39;;;;;;;;;;;11.90;99.90;;;;;;5071340;28;19927;-71
2021/09/17 02:21:04;;;;;;;;;;;11.90;99.90;;;;;;5071501;28;19908;-72
2021/09/17 02:23:30;;;;;;;;;;;11.80;99.90;;;;;;5071493;28;20427;-71
2021/09/17 02:25:55;;;;;;;;;;;11.80;99.90;;;;;;5071575;28;19916;-71
2021/09/17 02:28:21;;;;;;;;;;;11.80;99.90;;;;;;5071010;28;20258;-71
2021/09/17 02:30:47;;;;;;;;;;;11.90;99.90;;;;;;5071718;28;19915;-71
2021/09/17 02:33:13;;;;;;;;;;;11.90;99.90;;;;;;5071311;28;19951;-71
2021/09/17 02:35:38;;;;;;;;;;;11.90;99.90;;;;;;5071505;28;19970;-71
2021/09/17 02:38:04;;;;;;;;;;;11.90;99.90;;;;;;5070981;28;19978;-71
2021/09/17 02:40:30;;;;;;;;;;;11.90;99.90;;;;;;5071185;28;19920;-72
2021/09/17 02:42:56;;;;;;;;;;;11.90;99.90;;;;;;5085453;28;19962;-71
2021/09/17 02:45:22;;;;;;;;;;;11.90;99.90;;;;;;5071206;28;19909;-71
2021/09/17 02:47:48;;;;;;;;;;;11.90;99.90;;;;;;5070613;28;19982;-71
2021/09/17 02:50:13;;;;;;;;;;;11.90;99.90;;;;;;5071074;28;20412;-72
2021/09/17 02:52:39;;;;;;;;;;;11.80;99.90;;;;;;5071202;28;20435;-71
2021/09/17 02:55:06;;;;;;;;;;;11.90;99.90;;;;;;5071244;28;19909;-71
2021/09/17 02:57:32;;;;;;;;;;;11.90;99.90;;;;;;5070710;28;19909;-71
2021/09/17 02:59:57;;;;;;;;;;;11.90;99.90;;;;;;5070903;28;20337;-71
2021/09/17 03:02:22;;;;;;;;;;;11.90;99.90;;;;;;5070784;28;19959;-71
2021/09/17 03:04:48;;;;;;;;;;;11.90;99.90;;;;;;5071052;28;19908;-71
2021/09/17 03:07:13;;;;;;;;;;;11.90;99.90;;;;;;5070751;28;19962;-71
2021/09/17 03:09:39;;;;;;;;;;;11.90;99.90;;;;;;5070954;28;19908;-71
2021/09/17 03:12:05;;;;;;;;;;;11.90;99.90;;;;;;5076627;28;19931;-71
2021/09/17 03:14:30;;;;;;;;;;;11.90;99.90;;;;;;5080547;28;19908;-71
2021/09/17 03:16:56;;;;;;;;;;;12.00;99.90;;;;;;5070385;28;20259;-71
2021/09/17 03:19:21;;;;;;;;;;;12.00;99.90;;;;;;5070925;28;19912;-71
2021/09/17 03:21:47;;;;;;;;;;;11.90;99.90;;;;;;5070811;28;20039;-71
2021/09/17 03:24:12;;;;;;;;;;;11.90;99.90;;;;;;5071207;28;19908;-72
2021/09/17 03:26:38;;;;;;;;;;;12.00;99.90;;;;;;5070710;28;19923;-72
2021/09/17 03:29:03;;;;;;;;;;;12.00;99.90;;;;;;5074381;28;20281;-71
2021/09/17 03:31:29;;;;;;;;;;;11.90;99.90;;;;;;5073956;28;19909;-71
2021/09/17 03:33:55;;;;;;;;;;;12.00;99.90;;;;;;5074383;28;19923;-71
2021/09/17 03:36:21;;;;;;;;;;;11.90;99.90;;;;;;5073884;28;19909;-72
2021/09/17 03:38:46;;;;;;;;;;;12.00;99.90;;;;;;5074162;28;19912;-71
2021/09/17 03:41:12;;;;;;;;;;;12.00;99.90;;;;;;5078650;28;19909;-71
2021/09/17 03:43:37;;;;;;;;;;;12.00;99.90;;;;;;5082784;28;20019;-71
2021/09/17 03:46:03;;;;;;;;;;;12.00;99.90;;;;;;5079079;28;19999;-71
2021/09/17 03:48:28;;;;;;;;;;;12.00;99.90;;;;;;5074060;28;20261;-71
2021/09/17 03:50:54;;;;;;;;;;;12.00;99.90;;;;;;5074199;28;19908;-71
2021/09/17 03:53:19;;;;;;;;;;;12.00;99.90;;;;;;5073959;28;19915;-72
2021/09/17 03:55:45;;;;;;;;;;;12.00;99.90;;;;;;5073813;28;19931;-72
2021/09/17 03:58:12;;;;;;;;;;;12.00;99.90;;;;;;5073551;28;19915;-71
2021/09/17 04:00:37;;;;;;;;;;;12.00;99.90;;;;;;5073598;28;19920;-71
2021/09/17 04:03:03;;;;;;;;;;;12.00;99.90;;;;;;5073807;28;19912;-71
2021/09/17 04:05:29;;;;;;;;;;;12.00;99.90;;;;;;5073778;28;19908;-71
2021/09/17 04:07:55;;;;;;;;;;;12.00;99.90;;;;;;5073631;28;20058;-71
2021/09/17 04:10:20;;;;;;;;;;;12.00;99.90;;;;;;5073672;28;20065;-71
2021/09/17 04:12:46;;;;;;;;;;;12.00;99.90;;;;;;5088069;28;19915;-71
2021/09/17 04:15:12;;;;;;;;;;;12.00;99.90;;;;;;5074819;28;20365;-72
2021/09/17 04:17:38;;;;;;;;;;;11.90;99.90;;;;;;5073053;28;19908;-72
2021/09/17 04:20:04;;;;;;;;;;;12.00;99.90;;;;;;5073440;28;20019;-71
2021/09/17 04:22:30;;;;;;;;;;;12.00;99.90;;;;;;5055346;28;19909;-71
2021/09/17 04:24:55;;;;;;;;;;;12.00;99.90;;;;;;5073402;28;20361;-71
2021/09/17 04:27:21;;;;;;;;;;;11.90;99.90;;;;;;5072780;28;19916;-71
2021/09/17 04:29:46;;;;;;;;;;;12.00;99.90;;;;;;5073138;28;19909;-71
2021/09/17 04:32:12;;;;;;;;;;;11.90;99.90;;;;;;5073095;28;19926;-72
2021/09/17 04:34:37;;;;;;;;;;;11.90;99.90;;;;;;5073088;28;20423;-71
2021/09/17 04:37:03;;;;;;;;;;;12.00;99.90;;;;;;5072556;28;19908;-71
2021/09/17 04:39:29;;;;;;;;;;;11.90;99.90;;;;;;5054710;28;20373;-72
2021/09/17 04:41:54;;;;;;;;;;;12.00;99.90;;;;;;5077006;28;19908;-71
2021/09/17 04:44:20;;;;;;;;;;;11.90;99.90;;;;;;5084976;28;19939;-71
2021/09/17 04:46:45;;;;;;;;;;;11.90;99.90;;;;;;5072381;28;19916;-71
2021/09/17 04:49:11;;;;;;;;;;;11.90;99.90;;;;;;5072832;28;20007;-71
2021/09/17 04:51:36;;;;;;;;;;;12.00;99.90;;;;;;5072613;28;19931;-71
2021/09/17 04:54:02;;;;;;;;;;;11.90;99.90;;;;;;5072780;28;19999;-71
2021/09/17 04:56:27;;;;;;;;;;;11.90;99.90;;;;;;5072202;28;20150;-71
2021/09/17 04:58:53;;;;;;;;;;;11.90;99.90;;;;;;5072525;28;19920;-71
2021/09/17 05:01:18;;;;;;;;;;;12.00;99.90;;;;;;5072538;28;19912;-71
2021/09/17 05:03:43;;;;;;;;;;;12.00;99.90;;;;;;5072442;28;20015;-71
2021/09/17 05:06:09;;;;;;;;;;;12.00;99.90;;;;;;5078078;28;19908;-71
2021/09/17 05:08:35;;;;;;;;;;;11.90;99.90;;;;;;5077793;28;20392;-71
2021/09/17 05:11:00;;;;;;;;;;;11.90;99.90;;;;;;5072424;28;19924;-71
2021/09/17 05:13:26;;;;;;;;;;;12.00;99.90;;;;;;5072235;28;19909;-71
2021/09/17 05:15:52;;;;;;;;;;;12.00;99.90;;;;;;5072042;28;19951;-71
2021/09/17 05:18:17;;;;;;;;;;;12.00;99.90;;;;;;5072057;28;20309;-71
2021/09/17 05:20:43;;;;;;;;;;;11.90;99.90;;;;;;5072046;28;19996;-71
2021/09/17 05:23:08;;;;;;;;;;;12.00;99.90;;;;;;5072158;28;19981;-71
2021/09/17 05:25:33;;;;;;;;;;;11.90;99.90;;;;;;5072154;28;19944;-72
2021/09/17 05:27:59;;;;;;;;;;;11.90;99.90;;;;;;5087372;28;20300;-71
2021/09/17 05:30:25;;;;;;;;;;;11.90;99.90;;;;;;5077073;28;20228;-71
2021/09/17 05:32:50;;;;;;;;;;;11.90;99.90;;;;;;5072374;28;19954;-71
2021/09/17 05:35:16;;;;;;;;;;;12.00;99.90;;;;;;5072050;28;19908;-71
2021/09/17 05:37:41;;;;;;;;;;;11.80;99.90;;;;;;5071612;28;19909;-71
2021/09/17 05:40:07;;;;;;;;;;;11.90;99.90;;;;;;5071846;28;19913;-71
2021/09/17 05:42:33;;;;;;;;;;;11.90;99.90;;;;;;5071900;28;19916;-71
2021/09/17 05:44:58;;;;;;;;;;;11.90;99.90;;;;;;5071879;28;20288;-71
2021/09/17 05:47:24;;;;;;;;;;;11.80;99.90;;;;;;5071587;28;19962;-72
2021/09/17 05:49:49;;;;;;;;;;;11.90;99.90;;;;;;5071126;28;20042;-71
2021/09/17 05:52:15;;;;;;;;;;;11.90;99.90;;;;;;5072055;28;20005;-71
2021/09/17 05:54:40;;;;;;;;;;;11.90;99.90;;;;;;5071920;28;19909;-71
2021/09/17 05:57:07;;;;;;;;;;;12.00;99.90;;;;;;5079867;28;19908;-71
2021/09/17 05:59:33;;;;;;;;;;;12.00;99.90;;;;;;5076854;28;19918;-72
2021/09/17 06:01:58;;;;;;;;;;;12.00;99.90;;;;;;5071774;28;19913;-71
2021/09/17 06:04:24;;;;;;;;;;;12.10;99.90;;;;;;5071677;28;20349;-71
2021/09/17 06:06:49;;;;;;;;;;;12.20;99.90;;;;;;5071398;28;20111;-71
2021/09/17 06:09:15;;;;;;;;;;;12.30;99.90;;;;;;5071608;28;20369;-71
2021/09/17 06:11:40;;;;;;;;;;;12.30;99.90;;;;;;5071597;28;19909;-71
2021/09/17 06:14:06;;;;;;;;;;;12.40;99.90;;;;;;5071365;28;19925;-71
2021/09/17 06:16:33;;;;;;;;;;;12.50;99.90;;;;;;5070999;28;19915;-71
2021/09/17 06:19:03;;;;;;;;;;;12.50;99.90;;;;;;5071572;28;19913;-71
2021/09/17 06:21:29;;;;;;;;;;;12.70;99.90;;;;;;5071544;28;19913;-71
2021/09/17 06:23:55;;;;;;;;;;;12.90;99.90;;;;;;5071407;28;19913;-71
2021/09/17 06:26:21;;;;;;;;;;;12.90;99.90;;;;;;5075318;28;19908;-72
2021/09/17 06:28:47;;;;;;;;;;;13.00;99.90;;;;;;5080640;28;19959;-72
2021/09/17 06:31:12;;;;;;;;;;;13.00;99.90;;;;;;5071691;28;19908;-71
2021/09/17 06:33:37;;;;;;;;;;;13.00;99.90;;;;;;5071576;28;19912;-71
2021/09/17 06:36:03;;;;;;;;;;;13.10;99.90;;;;;;5083465;28;19944;-72
2021/09/17 06:38:29;;;;;;;;;;;13.20;99.90;;;;;;5090793;28;19915;-71
2021/09/17 06:40:54;;;;;;;;;;;13.30;99.90;;;;;;5090673;28;20140;-71
2021/09/17 06:43:20;;;;;;;;;;;13.40;99.90;;;;;;5090650;28;19915;-71
2021/09/17 06:45:45;;;;;;;;;;;13.40;99.90;;;;;;5090404;28;19930;-71
2021/09/17 06:48:11;;;;;;;;;;;13.50;99.90;;;;;;5090341;28;19908;-71
2021/09/17 06:50:37;;;;;;;;;;;13.60;99.90;;;;;;5090721;28;20354;-71
2021/09/17 06:53:02;;;;;;;;;;;13.70;99.90;;;;;;5090710;28;19916;-71
2021/09/17 06:55:29;;;;;;;;;;;13.70;99.90;;;;;;5090579;28;20343;-71
2021/09/17 06:57:56;;;;;;;;;;;13.70;99.90;;;;;;5081536;28;19993;-71
2021/09/17 07:00:22;;;;;;;;;;;13.70;99.90;;;;;;5076841;28;20396;-71
2021/09/17 07:02:47;;;;;;;;;;;14.00;99.90;;;;;;5074437;28;19944;-71
2021/09/17 07:05:13;;;;;;;;;;;14.00;99.90;;;;;;5074912;28;19916;-71
2021/09/17 07:07:39;;;;;;;;;;;14.10;99.90;;;;;;5074781;28;19924;-71
2021/09/17 07:10:05;;;;;;;;;;;14.30;99.90;;;;;;5074543;28;19909;-72
2021/09/17 07:12:30;;;;;;;;;;;14.40;99.90;;;;;;5078699;28;19912;-71
2021/09/17 07:14:56;;;;;;;;;;;14.70;99.90;;;;;;5087027;28;19915;-72
2021/09/17 07:17:21;;;;;;;;;;;14.80;99.90;;;;;;5092504;28;20073;-71
2021/09/17 07:19:47;;;;;;;;;;;14.90;99.90;;;;;;5084421;28;20470;-71
2021/09/17 07:22:12;;;;;;;;;;;14.90;99.90;;;;;;5084629;28;19914;-71
2021/09/17 07:24:38;;;;;;;;;;;14.90;99.90;;;;;;5082587;28;19912;-72
2021/09/17 07:27:03;;;;;;;;;;;15.00;99.90;;;;;;5088078;28;19908;-72
2021/09/17 07:29:29;;;;;;;;;;;15.00;99.90;;;;;;5090062;28;19907;-71
2021/09/17 07:31:54;;;;;;;;;;;14.90;99.90;;;;;;5081757;28;19923;-71
2021/09/17 07:34:20;;;;;;;;;;;15.00;99.90;;;;;;5072704;28;19982;-72
2021/09/17 07:36:45;;;;;;;;;;;15.10;99.90;;;;;;5074377;28;20596;-71
2021/09/17 07:39:11;;;;;;;;;;;15.20;99.90;;;;;;5085614;28;20353;-71
2021/09/17 07:41:36;;;;;;;;;;;15.20;99.90;;;;;;5088408;28;19916;-72
2021/09/17 07:44:02;;;;;;;;;;;15.30;99.90;;;;;;5085536;28;19912;-72
2021/09/17 07:46:28;;;;;;;;;;;15.50;99.90;;;;;;5084606;28;20034;-72
2021/09/17 07:48:53;;;;;;;;;;;15.50;99.90;;;;;;5079193;28;19931;-71
2021/09/17 07:51:19;;;;;;;;;;;15.50;99.90;;;;;;5078507;28;19915;-72
2021/09/17 07:53:44;;;;;;;;;;;15.50;99.90;;;;;;5077079;28;19912;-71
2021/09/17 07:56:10;;;;;;;;;;;15.90;99.90;;;;;;5081295;28;19909;-71
2021/09/17 07:58:35;;;;;;;;;;;16.00;99.90;;;;;;5076619;28;20015;-71
2021/09/17 08:01:01;;;;;;;;;;;16.10;99.90;;;;;;5083936;28;20361;-71
2021/09/17 08:03:29;;;;;;;;;;;16.30;99.90;;;;;;5081421;28;20152;-71
2021/09/17 08:05:55;;;;;;;;;;;16.50;99.90;;;;;;5081535;28;20045;-72
2021/09/17 08:08:21;;;;;;;;;;;16.70;99.90;;;;;;5083276;28;20387;-71
2021/09/17 08:10:46;;;;;;;;;;;16.80;99.90;;;;;;5075502;28;19909;-71
2021/09/17 08:13:12;;;;;;;;;;;16.60;99.90;;;;;;5083626;28;19911;-71
2021/09/17 08:15:38;;;;;;;;;;;17.00;99.90;;;;;;5085401;28;20289;-71
2021/09/17 08:18:03;;;;;;;;;;;17.20;99.90;;;;;;5084803;28;20011;-71
2021/09/17 08:20:29;;;;;;;;;;;16.80;99.90;;;;;;5087628;28;20358;-71
2021/09/17 08:22:54;;;;;;;;;;;17.20;99.90;;;;;;5085049;28;19919;-71
2021/09/17 08:25:20;;;;;;;;;;;17.30;99.90;;;;;;5086727;28;20010;-71
2021/09/17 08:27:46;;;;;;;;;;;17.10;99.90;;;;;;5086879;28;19919;-71
2021/09/17 08:30:12;;;;;;;;;;;17.30;99.90;;;;;;5085267;28;20284;-71
2021/09/17 08:32:39;;;;;;;;;;;17.70;99.90;;;;;;5085501;28;19911;-71
2021/09/17 08:35:08;;;;;;;;;;;17.70;99.90;;;;;;5087664;28;19916;-71
2021/09/17 08:37:33;;;;;;;;;;;17.20;99.90;;;;;;5094851;28;19908;-71
2021/09/17 08:39:59;;;;;;;;;;;17.10;99.90;;;;;;5066146;28;19935;-71
2021/09/17 08:42:24;;;;;;;;;;;17.30;99.90;;;;;;5077636;28;20003;-71
2021/09/17 08:44:50;;;;;;;;;;;17.20;99.90;;;;;;5083654;28;19953;-72
2021/09/17 08:47:16;;;;;;;;;;;17.00;99.90;;;;;;5089397;28;19953;-70
2021/09/17 08:49:43;;;;;;;;;;;17.10;99.90;;;;;;5079040;28;19908;-71
2021/09/17 08:52:09;;;;;;;;;;;17.50;99.90;;;;;;5071958;28;19912;-71
2021/09/17 08:54:34;;;;;;;;;;;17.40;99.90;;;;;;5087522;28;19953;-72
2021/09/17 08:57:00;;;;;;;;;;;17.20;99.90;;;;;;5083548;28;19916;-71
2021/09/17 08:59:25;;;;;;;;;;;17.50;99.90;;;;;;5085705;28;19911;-71
2021/09/17 09:01:50;;;;;;;;;;;17.90;99.90;;;;;;5088438;28;19920;-71
2021/09/17 09:04:27;;;;;;;;;;;17.80;99.90;;;;;;5091025;28;19968;-71
2021/09/17 09:06:53;;;;;;;;;;;17.80;99.90;;;;;;5064793;28;19931;-71
2021/09/17 09:09:20;;;;;;;;;;;18.00;99.90;;;;;;5087410;28;20392;-71
2021/09/17 09:11:47;;;;;;;;;;;17.90;99.90;;;;;;5087221;28;20330;-71
2021/09/17 09:14:13;;;;;;;;;;;18.20;99.90;;;;;;5079376;28;19912;-71
2021/09/17 09:16:43;;;;;;;;;;;18.10;99.90;;;;;;5075297;28;19912;-72
2021/09/17 09:19:16;;;;;;;;;;;18.30;99.90;;;;;;5082154;28;19920;-71
2021/09/17 09:21:41;;;;;;;;;;;18.20;99.90;;;;;;5086004;28;19969;-71
2021/09/17 09:24:08;;;;;;;;;;;18.40;99.90;;;;;;5084052;28;20375;-71
2021/09/17 09:26:34;;;;;;;;;;;18.10;99.90;;;;;;5086157;28;19999;-71
2021/09/17 09:28:59;;;;;;;;;;;18.00;99.90;;;;;;5084199;28;20049;-72
2021/09/17 09:31:25;;;;;;;;;;;18.30;99.90;;;;;;5087228;28;19914;-71
2021/09/17 09:33:52;;;;;;;;;;;18.60;99.90;;;;;;5085940;28;19998;-71
2021/09/17 09:36:19;;;;;;;;;;;18.80;99.90;;;;;;5081777;28;19912;-71
2021/09/17 09:38:48;;;;;;;;;;;18.50;99.90;;;;;;5080699;28;19954;-70
2021/09/17 09:41:17;;;;;;;;;;;18.60;99.90;;;;;;5074724;28;19966;-71
2021/09/17 09:43:54;;;;;;;;;;;18.70;99.90;;;;;;5084260;28;19916;-71
2021/09/17 09:46:34;;;;;;;;;;;18.30;99.90;;;;;;5080071;28;20011;-71
2021/09/17 09:48:59;;;;;;;;;;;18.30;99.90;;;;;;5071329;28;19908;-71
2021/09/17 09:51:25;;;;;;;;;;;18.50;99.90;;;;;;5074941;28;19916;-71
2021/09/17 09:53:51;;;;;;;;;;;18.30;99.90;;;;;;5055765;28;19908;-72
2021/09/17 09:56:18;;;;;;;;;;;18.30;99.90;;;;;;5089469;28;19915;-70
2021/09/17 09:58:44;;;;;;;;;;;18.40;99.90;;;;;;5078489;28;20070;-72
2021/09/17 10:01:10;;;;;;;;;;;18.70;99.90;;;;;;5084174;28;19909;-73
2021/09/17 10:03:36;;;;;;;;;;;18.80;99.90;;;;;;5092259;28;20003;-72
2021/09/17 10:06:01;;;;;;;;;;;19.00;99.90;;;;;;5078831;28;20035;-71
2021/09/17 10:08:27;;;;;;;;;;;19.00;99.90;;;;;;5086434;28;20417;-71
2021/09/17 10:10:54;;;;;;;;;;;18.60;99.90;;;;;;5076676;28;19909;-72
2021/09/17 10:13:19;;;;;;;;;;;18.80;99.90;;;;;;5082509;28;20303;-71
2021/09/17 10:15:45;;;;;;;;;;;19.00;99.90;;;;;;5075484;28;19915;-70
2021/09/17 10:18:10;;;;;;;;;;;18.90;99.90;;;;;;5079986;28;19917;-72
2021/09/17 10:20:37;;;;;;;;;;;18.90;99.90;;;;;;5077200;28;19957;-72
2021/09/17 10:23:21;;;;;;;;;;;18.70;99.90;;;;;;5086472;28;19907;-72
2021/09/17 10:26:05;;;;;;;;;;;18.60;99.90;;;;;;5084006;28;19929;-73
2021/09/17 10:28:31;;;;;;;;;;;18.70;99.90;;;;;;5075145;28;20416;-71
2021/09/17 10:31:10;;;;;;;;;;;18.40;99.90;;;;;;5091343;28;19960;-71
2021/09/17 10:33:36;;;;;;;;;;;18.70;99.90;;;;;;5074950;28;19945;-71
2021/09/17 10:36:01;;;;;;;;;;;18.50;99.90;;;;;;5060560;28;19951;-71
2021/09/17 10:38:34;;;;;;;;;;;18.20;99.90;;;;;;5085989;28;19915;-72
2021/09/17 10:40:59;;;;;;;;;;;18.50;99.90;;;;;;5081718;28;20312;-71
2021/09/17 10:43:25;;;;;;;;;;;18.70;99.90;;;;;;5084330;28;19916;-72
2021/09/17 10:45:50;;;;;;;;;;;18.40;99.90;;;;;;5088621;28;19912;-71
2021/09/17 10:48:20;;;;;;;;;;;18.60;99.90;;;;;;5085453;28;19917;-71
2021/09/17 10:50:48;;;;;;;;;;;18.80;99.90;;;;;;5087836;28;19908;-71
2021/09/17 10:53:14;;;;;;;;;;;19.10;99.90;;;;;;5081607;28;20312;-73
2021/09/17 10:55:43;;;;;;;;;;;18.90;99.90;;;;;;5079446;28;19915;-72
2021/09/17 10:58:26;;;;;;;;;;;18.80;99.90;;;;;;5079584;28;19926;-71
2021/09/17 11:00:52;;;;;;;;;;;18.60;99.90;;;;;;5081585;28;20339;-72
2021/09/17 11:03:35;;;;;;;;;;;18.10;99.90;;;;;;5073837;28;19908;-71
2021/09/17 11:06:19;;;;;;;;;;;18.30;99.90;;;;;;5085533;28;19916;-72
2021/09/17 11:08:45;;;;;;;;;;;18.20;99.90;;;;;;5080481;28;19909;-72
2021/09/17 11:11:25;;;;;;;;;;;18.40;99.90;;;;;;5085078;28;19915;-71
2021/09/17 11:13:56;;;;;;;;;;;18.30;99.90;;;;;;5084112;28;20276;-71
2021/09/17 11:16:22;;;;;;;;;;;18.70;99.90;;;;;;5082869;28;20040;-72
2021/09/17 11:19:01;;;;;;;;;;;18.60;99.90;;;;;;5089121;28;19991;-72
2021/09/17 11:21:31;;;;;;;;;;;18.70;99.90;;;;;;5090845;28;19954;-72
2021/09/17 11:23:57;;;;;;;;;;;18.80;99.90;;;;;;5075748;28;19909;-72
2021/09/17 11:26:27;;;;;;;;;;;19.10;99.90;;;;;;5061383;28;19914;-72
2021/09/17 11:28:58;;;;;;;;;;;19.10;99.90;;;;;;5081916;28;19909;-73
2021/09/17 11:31:31;;;;;;;;;;;19.20;99.90;;;;;;5091036;28;19912;-72
2021/09/17 11:33:57;;;;;;;;;;;19.40;99.90;;;;;;5079706;28;19967;-72
2021/09/17 11:36:56;;;;;;;;;;;19.50;99.90;;;;;;5082556;28;20361;-72
2021/09/17 11:39:26;;;;;;;;;;;19.20;99.90;;;;;;5051105;28;19919;-72
2021/09/17 11:42:08;;;;;;;;;;;18.80;99.90;;;;;;5082125;28;19915;-72
2021/09/17 11:44:35;;;;;;;;;;;19.20;99.90;;;;;;5087618;28;19908;-72
2021/09/17 11:47:02;;;;;;;;;;;19.40;99.90;;;;;;5083659;28;20431;-72
2021/09/17 11:49:29;;;;;;;;;;;19.30;99.90;;;;;;5083914;28;20383;-72
2021/09/17 11:52:01;;;;;;;;;;;19.80;99.90;;;;;;5091742;28;19912;-72
2021/09/17 11:54:27;;;;;;;;;;;19.80;99.90;;;;;;5080214;28;20389;-72
2021/09/17 11:57:06;;;;;;;;;;;19.70;99.90;;;;;;5083101;28;19955;-72
2021/09/17 11:59:33;;;;;;;;;;;19.90;99.90;;;;;;5080216;28;20467;-72
2021/09/17 12:02:17;;;;;;;;;;;20.20;99.90;;;;;;5077135;28;20359;-72
2021/09/17 12:04:45;;;;;;;;;;;20.40;99.90;;;;;;5072655;28;19912;-71
2021/09/17 12:07:10;;;;;;;;;;;20.20;99.90;;;;;;5082617;28;19915;-71
2021/09/17 12:09:36;;;;;;;;;;;19.70;99.90;;;;;;5083451;28;19912;-71
2021/09/17 12:12:02;;;;;;;;;;;19.60;99.90;;;;;;5076690;28;19916;-72
2021/09/17 12:14:27;;;;;;;;;;;20.40;99.90;;;;;;5092329;28;20342;-72
2021/09/17 12:16:52;;;;;;;;;;;20.30;99.90;;;;;;5094744;28;19994;-72
2021/09/17 12:19:18;;;;;;;;;;;19.90;99.90;;;;;;5083469;28;19919;-72
2021/09/17 12:21:44;;;;;;;;;;;19.90;99.90;;;;;;5072674;28;19931;-71
2021/09/17 12:24:19;;;;;;;;;;;19.90;99.90;;;;;;5082429;28;19912;-72
2021/09/17 12:26:56;;;;;;;;;;;20.20;99.90;;;;;;5080366;28;19909;-72
2021/09/17 12:29:22;;;;;;;;;;;20.40;99.90;;;;;;5081653;28;19922;-72
2021/09/17 12:31:48;;;;;;;;;;;20.20;99.90;;;;;;5078765;28;20007;-72
2021/09/17 12:34:17;;;;;;;;;;;20.00;99.90;;;;;;5075262;28;19934;-72
2021/09/17 12:36:48;;;;;;;;;;;19.20;99.90;;;;;;5081822;28;19908;-72
2021/09/17 12:39:13;;;;;;;;;;;19.40;99.90;;;;;;5087346;28;20708;-72
2021/09/17 12:41:39;;;;;;;;;;;20.10;99.90;;;;;;5094579;28;19908;-73
2021/09/17 12:44:11;;;;;;;;;;;20.70;99.90;;;;;;5078504;28;19908;-72
2021/09/17 12:46:42;;;;;;;;;;;20.60;99.90;;;;;;5083914;28;19962;-72
2021/09/17 12:49:07;;;;;;;;;;;20.00;99.90;;;;;;5073058;28;20361;-72
2021/09/17 12:51:32;;;;;;;;;;;20.10;99.90;;;;;;5076766;28;19919;-73
2021/09/17 12:54:00;;;;;;;;;;;20.30;99.90;;;;;;5073640;28;19912;-72
2021/09/17 12:56:26;;;;;;;;;;;20.30;99.90;;;;;;5085408;28;19912;-72
2021/09/17 12:59:07;;;;;;;;;;;20.00;99.90;;;;;;5087256;28;20380;-72
2021/09/17 13:01:32;;;;;;;;;;;20.10;99.90;;;;;;5075638;28;19915;-72
2021/09/17 13:03:58;;;;;;;;;;;20.20;99.90;;;;;;5080887;28;20507;-72
2021/09/17 13:06:24;;;;;;;;;;;20.40;99.90;;;;;;5076363;28;19955;-72
2021/09/17 13:08:49;;;;;;;;;;;20.00;99.90;;;;;;5088930;28;19916;-72
2021/09/17 13:11:15;;;;;;;;;;;19.90;99.90;;;;;;5082916;28;20368;-72
2021/09/17 13:13:40;;;;;;;;;;;19.20;99.90;;;;;;5084909;28;19952;-72
2021/09/17 13:16:06;;;;;;;;;;;19.10;99.90;;;;;;5080761;28;19908;-72
2021/09/17 13:18:31;;;;;;;;;;;19.00;99.90;;;;;;5085865;28;19912;-72
2021/09/17 13:20:57;;;;;;;;;;;19.20;99.90;;;;;;5086802;28;20429;-72
2021/09/17 13:23:22;;;;;;;;;;;19.00;99.90;;;;;;5077567;28;19962;-72
2021/09/17 13:25:49;;;;;;;;;;;18.90;99.90;;;;;;5072011;28;19912;-72
2021/09/17 13:28:14;;;;;;;;;;;18.90;99.90;;;;;;5069870;28;19908;-72
2021/09/17 13:30:41;;;;;;;;;;;18.90;99.90;;;;;;5091327;28;20344;-73
2021/09/17 13:33:08;;;;;;;;;;;18.90;99.90;;;;;;5091382;28;19908;-72
2021/09/17 13:35:35;;;;;;;;;;;18.80;99.90;;;;;;5091248;28;19919;-73
2021/09/17 13:38:01;;;;;;;;;;;18.80;99.90;;;;;;5078617;28;19976;-72
2021/09/17 13:40:27;;;;;;;;;;;18.60;99.90;;;;;;5075340;28;19916;-72
2021/09/17 13:42:53;;;;;;;;;;;18.70;99.90;;;;;;5053715;28;19915;-71
2021/09/17 13:45:19;;;;;;;;;;;18.80;99.90;;;;;;5071674;28;20015;-72
2021/09/17 13:47:45;;;;;;;;;;;18.70;99.90;;;;;;5071301;28;20002;-72
2021/09/17 13:50:13;;;;;;;;;;;18.60;99.90;;;;;;5071602;28;20348;-72
2021/09/17 13:52:42;;;;;;;;;;;18.50;99.90;;;;;;5071548;28;19951;-72
2021/09/17 13:55:08;;;;;;;;;;;18.40;99.90;;;;;;5071728;28;19959;-72
2021/09/17 13:57:34;;;;;;;;;;;18.30;99.90;;;;;;5071315;28;20322;-72
2021/09/17 13:59:59;;;;;;;;;;;18.90;99.90;;;;;;5071485;28;20282;-72
2021/09/17 14:02:25;;;;;;;;;;;19.10;99.90;;;;;;5071602;28;19943;-73
2021/09/17 14:04:50;;;;;;;;;;;19.30;99.90;;;;;;5071535;28;20277;-73
2021/09/17 14:07:16;;;;;;;;;;;19.60;99.90;;;;;;5083779;28;19915;-72
2021/09/17 14:09:41;;;;;;;;;;;19.40;99.90;;;;;;5073285;28;20074;-72
2021/09/17 14:12:07;;;;;;;;;;;19.50;99.90;;;;;;5070894;28;19970;-72